Time;durP1;ratioP1;P1;durP2;ratioP2;P2;SDS_P1;SDS_P2;PMS_P1;PMS_P2;Temp;Humidity;BMP_temperature;BMP_pressure;BME280_temperature;BME280_humidity;BME280_pressure;Samples;Min_cycle;Max_cycle;Signal;HPM_P1;HPM_P2
2023/04/18 00:00:04;;;;;;;4.57;2.10;;;;;;;;;;5109939;27;92190;-62
2023/04/18 00:02:35;;;;;;;2.70;1.87;;;;;;;;;;5107124;27;94160;-61
2023/04/18 00:05:04;;;;;;;4.53;2.30;;;;;;;;;;5108557;27;93921;-61
2023/04/18 00:07:32;;;;;;;3.00;2.13;;;;;;;;;;5122756;27;92087;-61
2023/04/18 00:10:00;;;;;;;3.27;2.20;;;;;;;;;;5088911;27;91551;-62
2023/04/18 00:12:30;;;;;;;3.07;2.10;;;;;;;;;;5086970;27;94210;-61
2023/04/18 00:14:59;;;;;;;2.93;2.10;;;;;;;;;;5089089;27;94204;-61
2023/04/18 00:17:27;;;;;;;5.27;2.20;;;;;;;;;;5100996;27;93124;-62
2023/04/18 00:19:57;;;;;;;2.90;2.03;;;;;;;;;;5086293;27;91943;-61
2023/04/18 00:22:25;;;;;;;3.13;1.80;;;;;;;;;;5095875;27;94188;-61
2023/04/18 00:24:53;;;;;;;3.50;2.03;;;;;;;;;;5101819;27;93817;-61
2023/04/18 00:27:22;;;;;;;2.53;2.10;;;;;;;;;;5091916;27;92060;-61
2023/04/18 00:29:51;;;;;;;2.87;1.90;;;;;;;;;;5095311;27;92148;-61
2023/04/18 00:32:20;;;;;;;6.13;2.10;;;;;;;;;;5096617;27;94178;-61
2023/04/18 00:34:48;;;;;;;3.37;2.40;;;;;;;;;;5090820;27;93865;-61
2023/04/18 00:37:16;;;;;;;3.57;1.80;;;;;;;;;;5091942;27;91954;-61
2023/04/18 00:39:45;;;;;;;2.23;1.80;;;;;;;;;;5102045;27;92239;-61
2023/04/18 00:42:13;;;;;;;4.20;1.87;;;;;;;;;;5103258;27;95085;-61
2023/04/18 00:44:41;;;;;;;2.20;2.00;;;;;;;;;;5112332;27;94793;-61
2023/04/18 00:47:11;;;;;;;2.47;1.73;;;;;;;;;;5120678;27;91975;-61
2023/04/18 00:49:39;;;;;;;1.87;1.67;;;;;;;;;;5100554;27;91855;-61
2023/04/18 00:52:07;;;;;;;3.93;2.40;;;;;;;;;;5100863;27;93977;-61
2023/04/18 00:54:35;;;;;;;2.93;2.33;;;;;;;;;;5109714;27;93784;-61
2023/04/18 00:57:04;;;;;;;3.50;1.87;;;;;;;;;;5091553;27;91970;-61
2023/04/18 00:59:34;;;;;;;3.43;2.20;;;;;;;;;;5098174;27;91330;-61
2023/04/18 01:02:02;;;;;;;1.87;1.67;;;;;;;;;;5087662;27;94149;-61
2023/04/18 01:04:32;;;;;;;3.30;2.27;;;;;;;;;;5089989;27;93817;-61
2023/04/18 01:07:01;;;;;;;2.50;1.80;;;;;;;;;;5099138;27;93127;-61
2023/04/18 01:09:29;;;;;;;2.93;2.30;;;;;;;;;;5099385;27;92042;-61
2023/04/18 01:11:57;;;;;;;2.63;1.73;;;;;;;;;;5100379;27;94274;-61
2023/04/18 01:14:26;;;;;;;3.17;2.33;;;;;;;;;;5099645;27;93855;-61
2023/04/18 01:16:54;;;;;;;1.77;1.67;;;;;;;;;;5080337;27;92135;-61
2023/04/18 01:19:22;;;;;;;3.00;2.00;;;;;;;;;;5094410;27;92028;-61
2023/04/18 01:21:53;;;;;;;2.67;1.87;;;;;;;;;;5089609;27;94080;-61
2023/04/18 01:24:25;;;;;;;5.47;2.00;;;;;;;;;;5116616;27;93183;-61
2023/04/18 01:26:53;;;;;;;1.60;1.50;;;;;;;;;;5089667;27;92160;-60
2023/04/18 01:29:22;;;;;;;3.43;1.80;;;;;;;;;;5094242;27;92025;-60
2023/04/18 01:31:50;;;;;;;3.03;1.80;;;;;;;;;;5099912;27;95136;-60
2023/04/18 01:34:18;;;;;;;3.83;1.60;;;;;;;;;;5101347;27;94816;-60
2023/04/18 01:36:47;;;;;;;2.13;1.93;;;;;;;;;;5099844;27;92111;-60
2023/04/18 01:39:17;;;;;;;1.80;1.70;;;;;;;;;;5101134;27;93040;-60
2023/04/18 01:41:46;;;;;;;3.47;2.53;;;;;;;;;;5090854;27;94126;-60
2023/04/18 01:44:15;;;;;;;3.60;2.17;;;;;;;;;;5094712;27;93972;-60
2023/04/18 01:46:43;;;;;;;2.77;2.23;;;;;;;;;;5095677;27;92142;-60
2023/04/18 01:49:11;;;;;;;1.53;1.30;;;;;;;;;;5107108;27;91314;-60
2023/04/18 01:51:40;;;;;;;2.97;1.40;;;;;;;;;;5124211;27;94565;-61
2023/04/18 01:54:09;;;;;;;2.70;1.73;;;;;;;;;;5115198;27;93951;-61
2023/04/18 01:56:37;;;;;;;2.03;1.40;;;;;;;;;;5083058;27;92863;-61
2023/04/18 01:59:07;;;;;;;2.77;1.50;;;;;;;;;;5095318;27;92059;-61
2023/04/18 02:01:35;;;;;;;4.27;1.90;;;;;;;;;;5104588;27;93994;-61
2023/04/18 02:04:03;;;;;;;2.47;1.83;;;;;;;;;;5114962;27;93716;-61
2023/04/18 02:06:31;;;;;;;2.20;1.40;;;;;;;;;;5105551;27;92087;-61
2023/04/18 02:09:00;;;;;;;1.87;1.63;;;;;;;;;;5105904;27;92147;-61
2023/04/18 02:11:28;;;;;;;3.37;2.00;;;;;;;;;;5119667;27;94593;-61
2023/04/18 02:13:58;;;;;;;1.60;1.50;;;;;;;;;;5124511;27;94330;-63
2023/04/18 02:16:28;;;;;;;1.80;1.50;;;;;;;;;;5124320;27;92060;-61
2023/04/18 02:18:56;;;;;;;1.40;1.20;;;;;;;;;;5123077;27;93310;-61
2023/04/18 02:21:24;;;;;;;1.97;1.40;;;;;;;;;;5107766;27;94857;-61
2023/04/18 02:23:53;;;;;;;3.30;1.60;;;;;;;;;;5103004;27;94917;-61
2023/04/18 02:26:21;;;;;;;1.70;1.40;;;;;;;;;;5092817;27;92159;-61
2023/04/18 02:28:49;;;;;;;2.13;1.40;;;;;;;;;;5092195;27;92112;-62
2023/04/18 02:31:17;;;;;;;2.90;1.87;;;;;;;;;;5108470;27;94162;-62
2023/04/18 02:33:47;;;;;;;1.63;1.50;;;;;;;;;;5107607;27;94028;-63
2023/04/18 02:36:15;;;;;;;1.83;1.67;;;;;;;;;;5102339;27;92133;-62
2023/04/18 02:38:45;;;;;;;1.53;1.43;;;;;;;;;;5107550;27;91281;-62
2023/04/18 02:41:16;;;;;;;1.73;1.33;;;;;;;;;;5113782;27;94153;-63
2023/04/18 02:43:44;;;;;;;1.50;1.40;;;;;;;;;;5118207;27;93771;-62
2023/04/18 02:46:12;;;;;;;2.90;1.47;;;;;;;;;;5111610;27;93514;-62
2023/04/18 02:48:41;;;;;;;1.80;1.70;;;;;;;;;;5108131;27;92101;-62
2023/04/18 02:51:10;;;;;;;3.33;1.70;;;;;;;;;;5113234;27;93997;-62
2023/04/18 02:53:39;;;;;;;2.67;1.87;;;;;;;;;;5102945;27;93878;-62
2023/04/18 02:56:08;;;;;;;1.60;1.17;;;;;;;;;;5112354;27;92059;-62
2023/04/18 02:58:36;;;;;;;1.50;1.37;;;;;;;;;;5119311;27;91853;-62
2023/04/18 03:01:04;;;;;;;2.67;1.57;;;;;;;;;;5109722;27;92953;-61
2023/04/18 03:03:32;;;;;;;1.77;1.27;;;;;;;;;;5121939;27;94010;-62
2023/04/18 03:06:01;;;;;;;1.67;0.93;;;;;;;;;;5112207;27;93695;-62
2023/04/18 03:08:30;;;;;;;3.70;1.53;;;;;;;;;;5105117;27;92059;-62
2023/04/18 03:10:59;;;;;;;2.00;1.20;;;;;;;;;;5092612;27;95093;-62
2023/04/18 03:13:27;;;;;;;1.80;1.23;;;;;;;;;;5123510;27;94569;-63
2023/04/18 03:15:55;;;;;;;1.83;1.57;;;;;;;;;;5110250;27;92021;-63
2023/04/18 03:18:23;;;;;;;1.67;1.23;;;;;;;;;;5090966;27;92194;-60
2023/04/18 03:20:52;;;;;;;2.50;1.70;;;;;;;;;;5113687;27;94012;-60
2023/04/18 03:23:20;;;;;;;2.50;1.37;;;;;;;;;;5086560;27;92770;-62
2023/04/18 03:25:50;;;;;;;2.17;1.30;;;;;;;;;;5094519;27;92089;-60
2023/04/18 03:28:18;;;;;;;1.27;1.00;;;;;;;;;;5120673;27;91347;-61
2023/04/18 03:30:46;;;;;;;3.37;1.47;;;;;;;;;;5100902;27;94121;-61
2023/04/18 03:33:15;;;;;;;1.30;1.17;;;;;;;;;;5120105;27;93910;-61
2023/04/18 03:35:44;;;;;;;1.90;1.33;;;;;;;;;;5082384;27;94013;-61
2023/04/18 03:38:12;;;;;;;1.93;1.57;;;;;;;;;;5115380;27;92140;-61
2023/04/18 03:40:41;;;;;;;1.40;1.30;;;;;;;;;;5122748;27;94164;-61
2023/04/18 03:43:10;;;;;;;1.40;1.30;;;;;;;;;;5118800;27;93824;-63
2023/04/18 03:45:38;;;;;;;1.57;1.00;;;;;;;;;;5101815;27;92131;-61
2023/04/18 03:48:07;;;;;;;1.67;1.57;;;;;;;;;;5119631;27;92127;-61
2023/04/18 03:50:35;;;;;;;0.87;0.87;;;;;;;;;;5101908;27;94177;-61
2023/04/18 03:53:03;;;;;;;1.00;0.80;;;;;;;;;;5119535;27;93958;-61
2023/04/18 03:55:32;;;;;;;1.23;1.13;;;;;;;;;;5104763;27;91770;-61
2023/04/18 03:58:00;;;;;;;1.43;1.00;;;;;;;;;;5118258;27;92062;-61
2023/04/18 04:00:30;;;;;;;1.67;1.40;;;;;;;;;;5101325;27;95290;-61
2023/04/18 04:02:58;;;;;;;2.23;1.67;;;;;;;;;;5116298;27;94750;-61
2023/04/18 04:05:27;;;;;;;2.70;1.30;;;;;;;;;;5104235;27;93226;-61
2023/04/18 04:07:55;;;;;;;2.10;1.90;;;;;;;;;;5115862;27;92125;-60
2023/04/18 04:10:23;;;;;;;1.63;1.47;;;;;;;;;;5113368;27;94404;-60
2023/04/18 04:12:51;;;;;;;1.00;0.90;;;;;;;;;;5107981;27;94264;-61
2023/04/18 04:15:20;;;;;;;3.50;1.40;;;;;;;;;;5107199;27;92004;-61
2023/04/18 04:17:49;;;;;;;3.97;1.30;;;;;;;;;;5110786;27;91387;-61
2023/04/18 04:20:22;;;;;;;1.40;1.00;;;;;;;;;;5116300;27;94298;-61
2023/04/18 04:22:51;;;;;;;2.53;1.50;;;;;;;;;;5109386;27;94047;-60
2023/04/18 04:25:22;;;;;;;1.30;1.20;;;;;;;;;;5090081;27;93314;-60
2023/04/18 04:27:52;;;;;;;2.27;1.27;;;;;;;;;;5091682;27;92150;-60
2023/04/18 04:30:21;;;;;;;2.97;1.47;;;;;;;;;;5093229;27;93225;-60
2023/04/18 04:32:50;;;;;;;2.10;1.73;;;;;;;;;;5102046;27;93981;-61
2023/04/18 04:35:19;;;;;;;1.13;0.83;;;;;;;;;;5118829;27;92038;-61
2023/04/18 04:37:47;;;;;;;3.00;1.83;;;;;;;;;;5100130;27;92144;-61
2023/04/18 04:40:16;;;;;;;1.03;0.97;;;;;;;;;;5103148;27;94181;-60
2023/04/18 04:42:44;;;;;;;1.47;1.37;;;;;;;;;;5101627;27;93887;-61
2023/04/18 04:45:13;;;;;;;1.50;1.00;;;;;;;;;;5111822;27;92658;-61
2023/04/18 04:47:41;;;;;;;1.20;1.07;;;;;;;;;;5114374;27;93530;-62
2023/04/18 04:50:14;;;;;;;1.30;1.20;;;;;;;;;;5104082;27;95102;-62
2023/04/18 04:52:42;;;;;;;2.00;1.10;;;;;;;;;;5100250;27;94848;-61
2023/04/18 04:55:10;;;;;;;3.47;1.33;;;;;;;;;;5083912;27;92221;-61
2023/04/18 04:57:39;;;;;;;1.57;1.17;;;;;;;;;;5083137;27;92071;-62
2023/04/18 05:00:08;;;;;;;1.57;1.03;;;;;;;;;;5093698;27;94534;-61
2023/04/18 05:02:36;;;;;;;3.07;1.23;;;;;;;;;;5079439;27;93904;-60
2023/04/18 05:05:05;;;;;;;1.33;1.20;;;;;;;;;;5080069;27;93363;-60
2023/04/18 05:07:34;;;;;;;1.27;1.17;;;;;;;;;;5100657;27;91337;-60
2023/04/18 05:10:03;;;;;;;0.90;0.83;;;;;;;;;;5100752;27;93920;-60
2023/04/18 05:12:31;;;;;;;1.47;1.10;;;;;;;;;;5100473;27;93979;-60
2023/04/18 05:14:59;;;;;;;2.10;1.17;;;;;;;;;;5093786;27;93026;-61
2023/04/18 05:17:27;;;;;;;1.67;1.47;;;;;;;;;;5085080;27;92087;-60
2023/04/18 05:19:56;;;;;;;1.43;1.13;;;;;;;;;;5097458;27;94172;-60
2023/04/18 05:22:24;;;;;;;1.93;1.23;;;;;;;;;;5097920;27;93993;-60
2023/04/18 05:24:54;;;;;;;1.40;1.30;;;;;;;;;;5079830;27;92093;-60
2023/04/18 05:27:22;;;;;;;2.37;1.30;;;;;;;;;;5079963;27;92264;-60
2023/04/18 05:29:51;;;;;;;1.30;0.93;;;;;;;;;;5079165;27;94494;-62
2023/04/18 05:32:20;;;;;;;1.50;1.40;;;;;;;;;;5080118;27;93900;-61
2023/04/18 05:34:48;;;;;;;1.70;1.27;;;;;;;;;;5092367;27;92086;-60
2023/04/18 05:37:16;;;;;;;1.07;0.83;;;;;;;;;;5098834;27;92102;-60
2023/04/18 05:39:45;;;;;;;1.07;0.90;;;;;;;;;;5097994;27;95061;-60
2023/04/18 05:42:14;;;;;;;1.27;1.00;;;;;;;;;;5099866;27;94720;-60
2023/04/18 05:44:43;;;;;;;0.97;0.97;;;;;;;;;;5100088;27;92170;-60
2023/04/18 05:47:11;;;;;;;1.60;1.00;;;;;;;;;;5097637;27;94034;-60
2023/04/18 05:49:39;;;;;;;1.10;0.73;;;;;;;;;;5099406;27;94220;-60
2023/04/18 05:52:07;;;;;;;1.23;1.13;;;;;;;;;;5120920;27;94267;-60
2023/04/18 05:54:36;;;;;;;1.17;0.70;;;;;;;;;;5111690;27;92625;-60
2023/04/18 05:57:04;;;;;;;1.93;1.20;;;;;;;;;;5080682;27;91404;-60
2023/04/18 05:59:33;;;;;;;0.83;0.83;;;;;;;;;;5085272;27;94329;-60
2023/04/18 06:02:02;;;;;;;1.10;1.00;;;;;;;;;;5099517;27;93631;-60
2023/04/18 06:04:30;;;;;;;2.50;1.10;;;;;;;;;;5097669;27;93054;-60
2023/04/18 06:06:59;;;;;;;1.73;1.10;;;;;;;;;;5099420;27;91936;-60
2023/04/18 06:09:27;;;;;;;1.77;1.10;;;;;;;;;;5099476;27;93061;-60
2023/04/18 06:11:56;;;;;;;1.33;1.10;;;;;;;;;;5087606;27;93823;-61
2023/04/18 06:14:25;;;;;;;1.83;0.87;;;;;;;;;;5080524;27;92050;-61
2023/04/18 06:16:54;;;;;;;1.27;1.10;;;;;;;;;;5080247;27;92160;-61
2023/04/18 06:19:22;;;;;;;0.90;0.80;;;;;;;;;;5084019;27;94101;-61
2023/04/18 06:21:51;;;;;;;1.80;1.13;;;;;;;;;;5099862;27;93849;-61
2023/04/18 06:24:19;;;;;;;2.30;1.40;;;;;;;;;;5094817;27;93595;-61
2023/04/18 06:26:47;;;;;;;2.07;1.13;;;;;;;;;;5096857;27;92233;-61
2023/04/18 06:29:16;;;;;;;1.03;0.90;;;;;;;;;;5096464;27;95104;-61
2023/04/18 06:31:47;;;;;;;1.10;1.00;;;;;;;;;;5098799;27;94858;-60
2023/04/18 06:34:16;;;;;;;1.30;1.07;;;;;;;;;;5099453;27;93429;-61
2023/04/18 06:36:44;;;;;;;2.80;1.13;;;;;;;;;;5093434;27;92075;-60
2023/04/18 06:39:13;;;;;;;1.43;0.87;;;;;;;;;;5100741;27;94182;-60
2023/04/18 06:41:41;;;;;;;0.70;0.70;;;;;;;;;;5097367;27;93717;-60
2023/04/18 06:44:09;;;;;;;1.45;1.10;;;;;;;;;;5081747;27;92058;-60
2023/04/18 06:46:38;;;;;;;1.00;0.97;;;;;;;;;;5083405;27;91262;-60
2023/04/18 06:49:06;;;;;;;1.30;0.90;;;;;;;;;;5081448;27;94253;-60
2023/04/18 06:51:35;;;;;;;1.33;0.97;;;;;;;;;;5082250;27;94151;-60
2023/04/18 06:54:04;;;;;;;0.70;0.70;;;;;;;;;;5095225;27;94111;-60
2023/04/18 06:56:32;;;;;;;1.40;1.13;;;;;;;;;;5088597;27;92078;-60
2023/04/18 06:59:03;;;;;;;0.90;0.90;;;;;;;;;;5085494;27;94033;-60
2023/04/18 07:01:32;;;;;;;1.00;0.90;;;;;;;;;;5093544;27;93885;-60
2023/04/18 07:04:01;;;;;;;1.53;0.90;;;;;;;;;;5096605;27;92067;-59
2023/04/18 07:06:29;;;;;;;1.00;0.90;;;;;;;;;;5089261;27;91944;-60
2023/04/18 07:09:00;;;;;;;1.43;1.10;;;;;;;;;;5082656;27;94496;-60
2023/04/18 07:11:28;;;;;;;0.80;0.67;;;;;;;;;;5083599;27;93439;-59
2023/04/18 07:13:56;;;;;;;1.47;1.30;;;;;;;;;;5082753;27;93005;-60
2023/04/18 07:16:25;;;;;;;1.03;0.70;;;;;;;;;;5083777;27;92064;-60
2023/04/18 07:18:53;;;;;;;1.53;1.07;;;;;;;;;;5082265;27;95180;-61
2023/04/18 07:21:22;;;;;;;0.73;0.63;;;;;;;;;;5096763;27;94991;-60
2023/04/18 07:23:51;;;;;;;1.70;1.23;;;;;;;;;;5106048;27;92057;-60
2023/04/18 07:26:20;;;;;;;1.43;1.00;;;;;;;;;;5098694;27;92478;-60
2023/04/18 07:28:49;;;;;;;0.73;0.73;;;;;;;;;;5098436;27;93936;-60
2023/04/18 07:31:18;;;;;;;1.10;1.00;;;;;;;;;;5084068;27;94000;-60
2023/04/18 07:33:46;;;;;;;1.43;1.10;;;;;;;;;;5102167;27;92310;-60
2023/04/18 07:36:14;;;;;;;0.97;0.87;;;;;;;;;;5102318;27;91142;-60
2023/04/18 07:38:43;;;;;;;1.43;0.73;;;;;;;;;;5101345;27;94247;-60
2023/04/18 07:41:11;;;;;;;1.00;0.90;;;;;;;;;;5101446;27;93872;-60
2023/04/18 07:43:41;;;;;;;3.10;1.13;;;;;;;;;;5101950;27;92922;-61
2023/04/18 07:46:09;;;;;;;1.70;1.10;;;;;;;;;;5101912;27;92091;-61
2023/04/18 07:48:37;;;;;;;1.20;1.10;;;;;;;;;;5104703;27;94544;-60
2023/04/18 07:51:06;;;;;;;1.60;1.33;;;;;;;;;;5116447;27;93954;-60
2023/04/18 07:53:34;;;;;;;2.67;0.80;;;;;;;;;;5101936;27;91935;-60
2023/04/18 07:56:02;;;;;;;1.23;1.10;;;;;;;;;;5101853;27;92018;-60
2023/04/18 07:58:31;;;;;;;1.00;0.90;;;;;;;;;;5102782;27;94285;-60
2023/04/18 08:01:00;;;;;;;2.30;1.17;;;;;;;;;;5104109;27;93712;-60
2023/04/18 08:03:29;;;;;;;1.57;1.10;;;;;;;;;;5099765;27;92073;-60
2023/04/18 08:05:58;;;;;;;1.53;1.20;;;;;;;;;;5097503;27;92044;-60
2023/04/18 08:08:26;;;;;;;4.77;1.70;;;;;;;;;;5100865;27;95083;-59
2023/04/18 08:10:54;;;;;;;1.27;1.10;;;;;;;;;;5109602;27;94710;-59
2023/04/18 08:13:22;;;;;;;1.43;1.07;;;;;;;;;;5102010;27;92114;-59
2023/04/18 08:15:51;;;;;;;2.90;1.27;;;;;;;;;;5120561;27;92138;-59
2023/04/18 08:18:21;;;;;;;3.23;1.03;;;;;;;;;;5121807;27;94248;-59
2023/04/18 08:20:50;;;;;;;1.90;1.10;;;;;;;;;;5103043;27;93835;-60
2023/04/18 08:23:18;;;;;;;1.23;0.90;;;;;;;;;;5089353;27;92060;-60
2023/04/18 08:25:46;;;;;;;1.17;0.80;;;;;;;;;;5116805;27;91238;-59
2023/04/18 08:28:14;;;;;;;1.43;0.87;;;;;;;;;;5120078;27;93828;-60
2023/04/18 08:30:47;;;;;;;1.83;1.30;;;;;;;;;;5118378;27;93863;-60
2023/04/18 08:33:15;;;;;;;1.80;0.73;;;;;;;;;;5108729;27;92974;-59
2023/04/18 08:35:45;;;;;;;1.50;1.23;;;;;;;;;;5097244;27;92178;-59
2023/04/18 08:38:14;;;;;;;1.47;0.87;;;;;;;;;;5100813;27;94104;-59
2023/04/18 08:40:43;;;;;;;0.67;0.67;;;;;;;;;;5103197;27;93905;-60
2023/04/18 08:43:13;;;;;;;1.37;0.80;;;;;;;;;;5093339;27;92007;-59
2023/04/18 08:45:41;;;;;;;1.67;0.90;;;;;;;;;;5121659;27;92063;-59
2023/04/18 08:48:12;;;;;;;2.17;0.87;;;;;;;;;;5114213;27;94284;-59
2023/04/18 08:50:40;;;;;;;2.83;0.93;;;;;;;;;;5110355;27;92829;-59
2023/04/18 08:53:10;;;;;;;1.20;0.97;;;;;;;;;;5114861;27;92047;-59
2023/04/18 08:55:39;;;;;;;2.10;0.80;;;;;;;;;;5101071;27;92127;-59
2023/04/18 08:58:07;;;;;;;0.70;0.60;;;;;;;;;;5100274;27;95275;-59
2023/04/18 09:00:35;;;;;;;1.23;0.80;;;;;;;;;;5121418;27;94721;-59
2023/04/18 09:03:05;;;;;;;1.23;0.80;;;;;;;;;;5117245;27;92157;-59
2023/04/18 09:05:34;;;;;;;0.70;0.70;;;;;;;;;;5106978;27;92052;-59
2023/04/18 09:08:02;;;;;;;1.07;0.97;;;;;;;;;;5103224;27;94563;-59
2023/04/18 09:10:32;;;;;;;0.97;0.97;;;;;;;;;;5116803;27;92774;-59
2023/04/18 09:13:01;;;;;;;1.07;0.97;;;;;;;;;;5106959;27;92258;-59
2023/04/18 09:15:30;;;;;;;0.90;0.80;;;;;;;;;;5121321;27;91414;-59
2023/04/18 09:17:59;;;;;;;0.80;0.80;;;;;;;;;;5118969;27;94264;-60
2023/04/18 09:20:33;;;;;;;2.00;0.83;;;;;;;;;;5105048;27;93900;-60
2023/04/18 09:23:02;;;;;;;0.67;0.67;;;;;;;;;;5112510;27;92915;-60
2023/04/18 09:25:33;;;;;;;1.47;0.70;;;;;;;;;;5121050;27;92141;-61
2023/04/18 09:28:03;;;;;;;0.70;0.70;;;;;;;;;;5112990;27;94123;-59
2023/04/18 09:30:40;;;;;;;0.90;0.80;;;;;;;;;;5118941;27;93992;-58
2023/04/18 09:33:09;;;;;;;3.33;0.90;;;;;;;;;;5119417;27;92073;-60
2023/04/18 09:35:38;;;;;;;1.03;0.70;;;;;;;;;;5100348;27;92078;-60
2023/04/18 09:38:06;;;;;;;1.73;0.97;;;;;;;;;;5099847;27;94195;-60
2023/04/18 09:40:34;;;;;;;0.60;0.60;;;;;;;;;;5100505;27;94012;-60
2023/04/18 09:43:09;;;;;;;0.87;0.80;;;;;;;;;;5099940;27;92110;-61
2023/04/18 09:45:37;;;;;;;0.93;0.70;;;;;;;;;;5099208;27;92085;-60
2023/04/18 09:48:06;;;;;;;0.60;0.60;;;;;;;;;;5099121;27;95238;-60
2023/04/18 09:50:34;;;;;;;0.80;0.80;;;;;;;;;;5099717;27;94750;-60
2023/04/18 09:53:03;;;;;;;1.27;0.97;;;;;;;;;;5100195;27;91904;-60
2023/04/18 09:55:32;;;;;;;0.90;0.90;;;;;;;;;;5100258;27;91952;-60
2023/04/18 09:58:00;;;;;;;0.70;0.70;;;;;;;;;;5099643;27;94261;-60
2023/04/18 10:00:30;;;;;;;1.13;0.93;;;;;;;;;;5099238;27;93887;-60
2023/04/18 10:02:58;;;;;;;0.93;0.80;;;;;;;;;;5099949;27;92193;-61
2023/04/18 10:05:28;;;;;;;2.17;1.30;;;;;;;;;;5099968;27;91257;-60
2023/04/18 10:07:56;;;;;;;1.20;1.07;;;;;;;;;;5099904;27;93583;-60
2023/04/18 10:10:24;;;;;;;0.70;0.70;;;;;;;;;;5103162;27;93882;-61
2023/04/18 10:12:53;;;;;;;0.93;0.80;;;;;;;;;;5103042;27;93030;-60
2023/04/18 10:15:22;;;;;;;1.30;1.20;;;;;;;;;;5102833;27;92135;-60
2023/04/18 10:17:57;;;;;;;2.07;1.20;;;;;;;;;;5102983;27;93159;-60
2023/04/18 10:20:33;;;;;;;0.80;0.63;;;;;;;;;;5103073;27;93760;-60
2023/04/18 10:23:22;;;;;;;1.27;0.57;;;;;;;;;;5103347;27;92076;-60
2023/04/18 10:25:50;;;;;;;0.57;0.50;;;;;;;;;;5102801;27;92048;-60
2023/04/18 10:28:20;;;;;;;1.13;1.00;;;;;;;;;;5102905;27;94016;-60
2023/04/18 10:30:55;;;;;;;1.03;0.87;;;;;;;;;;5103469;27;93946;-60
2023/04/18 10:33:26;;;;;;;0.60;0.60;;;;;;;;;;5103570;27;92942;-60
2023/04/18 10:36:00;;;;;;;1.50;0.80;;;;;;;;;;5103124;27;92040;-60
2023/04/18 10:38:28;;;;;;;1.27;1.03;;;;;;;;;;5102733;27;95159;-60
2023/04/18 10:41:15;;;;;;;0.73;0.60;;;;;;;;;;5103139;27;94650;-60
2023/04/18 10:44:11;;;;;;;1.03;0.60;;;;;;;;;;5103498;27;92064;-60
2023/04/18 10:46:40;;;;;;;1.03;0.70;;;;;;;;;;5055665;27;92303;-60
2023/04/18 10:49:16;;;;;;;0.80;0.80;;;;;;;;;;5103058;27;94219;-60
2023/04/18 10:51:45;;;;;;;1.43;0.60;;;;;;;;;;5102969;27;93843;-60
2023/04/18 10:54:14;;;;;;;0.70;0.60;;;;;;;;;;5103434;27;92094;-60
2023/04/18 10:56:51;;;;;;;1.00;0.63;;;;;;;;;;5103373;27;91567;-60
2023/04/18 10:59:19;;;;;;;0.67;0.60;;;;;;;;;;5102232;27;94089;-60
2023/04/18 11:01:48;;;;;;;1.13;0.60;;;;;;;;;;5103169;27;92861;-60
2023/04/18 11:04:17;;;;;;;1.03;0.57;;;;;;;;;;5103078;27;93007;-60
2023/04/18 11:06:48;;;;;;;0.63;0.63;;;;;;;;;;5103285;27;91869;-60
2023/04/18 11:09:16;;;;;;;0.80;0.80;;;;;;;;;;5102654;27;95589;-60
2023/04/18 11:11:44;;;;;;;1.43;1.00;;;;;;;;;;5102729;27;93839;-59
2023/04/18 11:14:12;;;;;;;1.30;1.20;;;;;;;;;;5102879;27;92063;-60
2023/04/18 11:16:41;;;;;;;0.80;0.80;;;;;;;;;;5102602;27;92205;-59
2023/04/18 11:19:20;;;;;;;1.47;1.07;;;;;;;;;;5102589;27;93930;-60
2023/04/18 11:21:50;;;;;;;0.70;0.67;;;;;;;;;;5102253;27;93693;-60
2023/04/18 11:24:22;;;;;;;0.80;0.80;;;;;;;;;;5103809;27;91997;-60
2023/04/18 11:26:54;;;;;;;0.70;0.70;;;;;;;;;;5103001;27;91991;-60
2023/04/18 11:29:23;;;;;;;0.80;0.80;;;;;;;;;;5101579;27;95091;-60
2023/04/18 11:31:52;;;;;;;0.93;0.60;;;;;;;;;;5102381;27;94842;-60
2023/04/18 11:34:26;;;;;;;0.50;0.50;;;;;;;;;;5102818;27;92064;-61
2023/04/18 11:36:54;;;;;;;1.37;0.77;;;;;;;;;;5102588;27;92090;-60
2023/04/18 11:39:23;;;;;;;0.70;0.60;;;;;;;;;;5102141;27;94177;-60
2023/04/18 11:41:51;;;;;;;0.47;0.47;;;;;;;;;;5102107;27;93785;-60
2023/04/18 11:44:23;;;;;;;0.50;0.50;;;;;;;;;;5102821;27;91955;-60
2023/04/18 11:46:51;;;;;;;1.23;0.60;;;;;;;;;;5103006;27;91550;-60
2023/04/18 11:49:27;;;;;;;0.97;0.70;;;;;;;;;;5101955;27;94261;-60
2023/04/18 11:51:56;;;;;;;1.10;0.70;;;;;;;;;;5102081;27;93859;-60
2023/04/18 11:54:36;;;;;;;0.70;0.70;;;;;;;;;;5101638;27;93065;-60
2023/04/18 11:57:05;;;;;;;0.40;0.40;;;;;;;;;;5102334;27;92049;-60
2023/04/18 11:59:33;;;;;;;1.63;0.60;;;;;;;;;;5101952;27;94157;-60
2023/04/18 12:02:01;;;;;;;0.83;0.80;;;;;;;;;;5101570;27;93776;-60
2023/04/18 12:04:57;;;;;;;0.50;0.50;;;;;;;;;;5102310;27;92063;-60
2023/04/18 12:07:36;;;;;;;1.17;0.60;;;;;;;;;;5102027;27;91936;-61
2023/04/18 12:10:05;;;;;;;0.60;0.60;;;;;;;;;;5101894;27;93989;-60
2023/04/18 12:12:33;;;;;;;1.13;0.60;;;;;;;;;;5102066;27;93972;-61
2023/04/18 12:15:02;;;;;;;0.57;0.57;;;;;;;;;;5102275;27;92062;-61
2023/04/18 12:17:30;;;;;;;1.27;0.70;;;;;;;;;;5101622;27;92108;-61
2023/04/18 12:20:02;;;;;;;1.03;0.87;;;;;;;;;;5100377;27;95100;-60
2023/04/18 12:22:38;;;;;;;0.60;0.60;;;;;;;;;;5101494;27;95271;-60
2023/04/18 12:25:10;;;;;;;0.50;0.50;;;;;;;;;;5102001;27;91970;-61
2023/04/18 12:27:56;;;;;;;2.87;0.73;;;;;;;;;;5101871;27;91890;-60
2023/04/18 12:30:25;;;;;;;0.70;0.60;;;;;;;;;;5101404;27;94209;-61
2023/04/18 12:32:54;;;;;;;0.57;0.57;;;;;;;;;;5099955;27;93978;-60
2023/04/18 12:35:24;;;;;;;0.70;0.40;;;;;;;;;;5101597;27;91953;-61
2023/04/18 12:37:54;;;;;;;1.00;0.90;;;;;;;;;;5102010;27;91197;-61
2023/04/18 12:40:22;;;;;;;0.57;0.40;;;;;;;;;;5101123;27;94213;-61
2023/04/18 12:42:51;;;;;;;1.37;0.77;;;;;;;;;;5100778;27;92685;-60
2023/04/18 12:45:20;;;;;;;1.23;0.90;;;;;;;;;;5101264;27;92753;-60
2023/04/18 12:47:49;;;;;;;0.83;0.57;;;;;;;;;;5101204;27;91973;-60
2023/04/18 12:50:17;;;;;;;0.83;0.57;;;;;;;;;;5100732;27;94056;-60
2023/04/18 12:52:47;;;;;;;0.40;0.40;;;;;;;;;;5101146;27;93966;-60
2023/04/18 12:55:15;;;;;;;0.97;0.77;;;;;;;;;;5101494;27;92167;-60
2023/04/18 12:57:43;;;;;;;0.70;0.70;;;;;;;;;;5101341;27;92084;-60
2023/04/18 13:00:12;;;;;;;0.90;0.90;;;;;;;;;;5100645;27;93123;-60
2023/04/18 13:02:42;;;;;;;0.30;0.30;;;;;;;;;;5100994;27;94007;-60
2023/04/18 13:05:11;;;;;;;0.40;0.40;;;;;;;;;;5100718;27;92151;-60
2023/04/18 13:07:39;;;;;;;0.50;0.50;;;;;;;;;;5101092;27;93158;-60
2023/04/18 13:10:10;;;;;;;0.60;0.50;;;;;;;;;;5100155;27;95195;-60
2023/04/18 13:12:38;;;;;;;0.60;0.60;;;;;;;;;;5100114;27;94601;-60
2023/04/18 13:15:07;;;;;;;0.40;0.40;;;;;;;;;;5101003;27;92068;-60
2023/04/18 13:17:36;;;;;;;1.00;0.60;;;;;;;;;;5100956;27;92055;-60
2023/04/18 13:20:05;;;;;;;1.47;0.90;;;;;;;;;;5100625;27;93046;-60
2023/04/18 13:22:33;;;;;;;0.60;0.60;;;;;;;;;;5101001;27;93647;-60
2023/04/18 13:25:01;;;;;;;0.70;0.70;;;;;;;;;;5101200;27;91797;-60
2023/04/18 13:27:31;;;;;;;0.30;0.30;;;;;;;;;;5101297;27;91194;-60
2023/04/18 13:29:59;;;;;;;1.07;0.57;;;;;;;;;;5100796;27;94102;-60
2023/04/18 13:32:28;;;;;;;0.30;0.30;;;;;;;;;;5100369;27;93947;-60
2023/04/18 13:34:56;;;;;;;0.30;0.30;;;;;;;;;;5100269;27;93225;-60
2023/04/18 13:37:24;;;;;;;0.63;0.63;;;;;;;;;;5100411;27;92032;-60
2023/04/18 13:39:53;;;;;;;0.80;0.80;;;;;;;;;;5100153;27;94282;-60
2023/04/18 13:42:21;;;;;;;0.57;0.53;;;;;;;;;;5100137;27;93869;-60
2023/04/18 13:44:51;;;;;;;1.30;0.60;;;;;;;;;;5103666;27;92117;-60
2023/04/18 13:47:19;;;;;;;0.70;0.60;;;;;;;;;;5104632;27;92090;-60
2023/04/18 13:49:47;;;;;;;1.60;0.53;;;;;;;;;;5103574;27;94288;-60
2023/04/18 13:52:16;;;;;;;1.03;0.70;;;;;;;;;;5104284;27;93723;-60
2023/04/18 13:54:44;;;;;;;1.20;1.10;;;;;;;;;;5104393;27;92040;-60
2023/04/18 13:57:13;;;;;;;0.70;0.53;;;;;;;;;;5104283;27;92084;-60
2023/04/18 13:59:41;;;;;;;0.47;0.47;;;;;;;;;;5102907;27;96444;-60
2023/04/18 14:02:11;;;;;;;0.43;0.43;;;;;;;;;;5103719;27;94793;-60
2023/04/18 14:04:40;;;;;;;0.77;0.77;;;;;;;;;;5104325;27;92160;-61
2023/04/18 14:07:08;;;;;;;0.50;0.50;;;;;;;;;;5103748;27;91983;-60
2023/04/18 14:09:36;;;;;;;1.70;0.60;;;;;;;;;;5103391;27;94010;-60
2023/04/18 14:12:05;;;;;;;0.50;0.50;;;;;;;;;;5103600;27;93122;-60
2023/04/18 14:14:34;;;;;;;0.50;0.50;;;;;;;;;;5104388;27;92109;-60
2023/04/18 14:17:02;;;;;;;1.23;1.13;;;;;;;;;;5103930;27;91248;-60
2023/04/18 14:19:33;;;;;;;0.73;0.73;;;;;;;;;;5103308;27;94295;-60
2023/04/18 14:22:01;;;;;;;0.87;0.67;;;;;;;;;;5103781;27;93821;-60
2023/04/18 14:24:30;;;;;;;0.67;0.50;;;;;;;;;;5102553;27;92807;-60
2023/04/18 14:26:58;;;;;;;0.60;0.60;;;;;;;;;;5103656;27;92028;-60
2023/04/18 14:29:26;;;;;;;2.00;0.90;;;;;;;;;;5102897;27;94708;-61
2023/04/18 14:31:54;;;;;;;1.10;0.77;;;;;;;;;;5103116;27;94003;-60
2023/04/18 14:34:23;;;;;;;1.67;0.60;;;;;;;;;;5103942;27;92053;-60
2023/04/18 14:36:52;;;;;;;0.80;0.80;;;;;;;;;;5103492;27;92105;-61
2023/04/18 14:39:21;;;;;;;1.07;0.70;;;;;;;;;;5103388;27;94132;-61
2023/04/18 14:41:49;;;;;;;0.73;0.73;;;;;;;;;;5103583;27;94056;-60
2023/04/18 14:44:17;;;;;;;0.73;0.73;;;;;;;;;;5103368;27;92049;-61
2023/04/18 14:46:46;;;;;;;0.70;0.70;;;;;;;;;;5102847;27;92042;-60
2023/04/18 14:49:14;;;;;;;0.83;0.80;;;;;;;;;;5102559;27;95125;-60
2023/04/18 14:51:43;;;;;;;2.60;0.70;;;;;;;;;;5102743;27;94830;-60
2023/04/18 14:54:12;;;;;;;0.73;0.73;;;;;;;;;;5103510;27;91796;-60